createdAt,value
2019-01-13T00:00:48.628Z,0.00
2019-01-13T00:01:48.606Z,0.00
2019-01-13T00:02:48.626Z,0.00
2019-01-13T00:03:48.620Z,0.00
2019-01-13T00:04:48.641Z,0.00
2019-01-13T00:05:48.568Z,0.00
2019-01-13T00:06:48.560Z,0.00
2019-01-13T00:07:48.548Z,0.00
2019-01-13T00:08:48.539Z,0.00
2019-01-13T00:09:48.563Z,0.00
2019-01-13T00:10:48.525Z,0.00
2019-01-13T00:11:48.512Z,0.00
2019-01-13T00:12:48.523Z,0.00
2019-01-13T00:13:48.485Z,0.00
2019-01-13T00:14:48.502Z,0.00
2019-01-13T00:15:48.467Z,0.00
2019-01-13T00:16:48.463Z,0.00
2019-01-13T00:17:48.440Z,0.00
2019-01-13T00:18:48.429Z,0.00
2019-01-13T00:19:48.454Z,0.00
2019-01-13T00:20:48.411Z,0.00
2019-01-13T00:21:48.403Z,0.00
2019-01-13T00:22:48.389Z,0.00
2019-01-13T00:23:48.403Z,0.00
2019-01-13T00:24:48.394Z,0.00
2019-01-13T00:25:48.360Z,0.00
2019-01-13T00:26:48.359Z,0.00
2019-01-13T00:27:48.370Z,0.00
2019-01-13T00:28:48.328Z,0.00
2019-01-13T00:29:48.313Z,0.00
2019-01-13T00:30:48.301Z,0.00
2019-01-13T00:31:48.293Z,0.00
2019-01-13T00:32:48.310Z,0.00
2019-01-13T00:33:48.267Z,0.00
2019-01-13T00:34:48.286Z,0.00
2019-01-13T00:35:48.251Z,0.00
2019-01-13T00:36:48.237Z,0.00
2019-01-13T00:37:48.232Z,0.00
2019-01-13T00:38:48.244Z,0.00
2019-01-13T00:39:48.232Z,0.00
2019-01-13T00:40:48.198Z,0.00
2019-01-13T00:41:48.217Z,0.00
2019-01-13T00:42:48.179Z,0.00
2019-01-13T00:43:48.166Z,0.00
2019-01-13T00:44:48.183Z,0.00
2019-01-13T00:45:48.151Z,0.00
2019-01-13T00:46:48.164Z,0.00
2019-01-13T00:47:48.149Z,0.00
2019-01-13T00:48:48.115Z,0.00
2019-01-13T00:49:48.104Z,0.00
2019-01-13T00:50:48.113Z,0.00
2019-01-13T00:51:48.107Z,0.00
2019-01-13T00:52:48.074Z,0.00
2019-01-13T00:53:48.063Z,0.00
2019-01-13T00:54:48.071Z,0.00
2019-01-13T00:55:48.083Z,0.00
2019-01-13T00:56:48.032Z,0.00
2019-01-13T00:57:48.023Z,0.00
2019-01-13T00:58:48.010Z,0.00
2019-01-13T00:59:48.003Z,0.00
2019-01-13T01:00:48.020Z,0.00
2019-01-13T01:01:47.977Z,0.00
2019-01-13T01:02:47.966Z,0.00
2019-01-13T01:03:47.959Z,0.00
2019-01-13T01:04:47.963Z,0.00
2019-01-13T01:05:47.968Z,0.00
2019-01-13T01:06:47.925Z,0.00
2019-01-13T01:07:47.920Z,0.00
2019-01-13T01:08:47.910Z,0.00
2019-01-13T01:09:47.915Z,0.00
2019-01-13T01:10:47.886Z,0.00
2019-01-13T01:11:47.887Z,0.00
2019-01-13T01:12:47.892Z,0.00
2019-01-13T01:13:47.889Z,0.00
2019-01-13T01:14:47.844Z,0.00
2019-01-13T01:15:47.834Z,0.00
2019-01-13T01:16:47.831Z,0.00
2019-01-13T01:17:47.814Z,0.00
2019-01-13T01:18:47.831Z,0.00
2019-01-13T01:19:47.837Z,0.00
2019-01-13T01:20:47.781Z,0.00
2019-01-13T01:21:47.788Z,0.00
2019-01-13T01:22:47.772Z,0.00
2019-01-13T01:23:47.779Z,0.00
2019-01-13T01:24:47.745Z,0.00
2019-01-13T01:25:47.732Z,0.00
2019-01-13T01:26:47.734Z,0.00
2019-01-13T01:27:47.711Z,0.00
2019-01-13T01:28:47.734Z,0.00
2019-01-13T01:29:47.686Z,0.00
2019-01-13T01:30:47.696Z,0.00
2019-01-13T01:31:47.671Z,0.00
2019-01-13T01:32:47.656Z,0.00
2019-01-13T01:33:47.680Z,0.00
2019-01-13T01:34:47.641Z,0.00
2019-01-13T01:35:47.625Z,0.00
2019-01-13T01:36:47.617Z,0.00
2019-01-13T01:37:47.605Z,0.00
2019-01-13T01:38:47.619Z,0.00
2019-01-13T01:39:47.588Z,0.00
2019-01-13T01:40:47.610Z,0.00
2019-01-13T01:41:47.564Z,0.00
2019-01-13T01:42:47.561Z,0.00
2019-01-13T01:43:47.542Z,0.00
2019-01-13T01:44:47.528Z,0.00
2019-01-13T01:45:47.554Z,0.00
2019-01-13T01:46:47.510Z,0.00
2019-01-13T01:47:47.504Z,0.00
2019-01-13T01:48:47.519Z,0.00
2019-01-13T01:49:47.486Z,0.00
2019-01-13T01:50:47.487Z,0.00
2019-01-13T01:51:47.460Z,0.00
2019-01-13T01:52:47.452Z,0.00
2019-01-13T01:53:47.465Z,0.00
2019-01-13T01:54:47.425Z,0.00
2019-01-13T01:55:47.419Z,0.00
2019-01-13T01:56:47.409Z,0.00
2019-01-13T01:57:47.395Z,0.00
2019-01-13T01:58:47.409Z,0.00
2019-01-13T01:59:47.382Z,0.00
2019-01-13T02:00:47.417Z,0.00
2019-01-13T02:01:47.353Z,0.00
2019-01-13T02:02:47.343Z,0.00
2019-01-13T02:03:47.341Z,0.00
2019-01-13T02:04:47.323Z,0.00
2019-01-13T02:05:47.360Z,0.00
2019-01-13T02:06:47.299Z,0.00
2019-01-13T02:07:47.288Z,0.00
2019-01-13T02:08:47.280Z,0.00
2019-01-13T02:09:47.278Z,0.00
2019-01-13T02:10:47.309Z,0.00
2019-01-13T02:11:47.246Z,0.00
2019-01-13T02:12:47.273Z,0.00
2019-01-13T02:13:47.222Z,0.00
2019-01-13T02:14:47.215Z,0.00
2019-01-13T02:15:47.208Z,0.00
2019-01-13T02:16:47.191Z,0.00
2019-01-13T02:17:47.205Z,0.00
2019-01-13T02:18:47.185Z,0.00
2019-01-13T02:19:47.167Z,0.00
2019-01-13T02:20:47.172Z,0.00
2019-01-13T02:21:47.136Z,0.00
2019-01-13T02:22:47.138Z,0.00
2019-01-13T02:23:47.113Z,0.00
2019-01-13T02:24:47.107Z,0.00
2019-01-13T02:25:47.116Z,0.00
2019-01-13T02:26:47.099Z,0.00
2019-01-13T02:27:47.071Z,0.00
2019-01-13T02:28:47.061Z,0.00
2019-01-13T02:29:47.103Z,0.00
2019-01-13T02:30:49.283Z,0.00
2019-01-13T02:31:47.032Z,0.00
2019-01-13T02:32:47.023Z,0.00
2019-01-13T02:33:47.021Z,0.00
2019-01-13T02:34:47.004Z,0.00
2019-01-13T02:35:47.032Z,0.00
2019-01-13T02:36:46.989Z,0.00
2019-01-13T02:37:46.966Z,0.00
2019-01-13T02:38:46.957Z,0.00
2019-01-13T02:39:46.959Z,0.00
2019-01-13T02:40:46.962Z,0.00
2019-01-13T02:41:46.968Z,0.00
2019-01-13T02:42:46.923Z,0.00
2019-01-13T02:43:46.934Z,0.00
2019-01-13T02:44:46.900Z,0.00
2019-01-13T02:45:46.886Z,0.00
2019-01-13T02:46:46.905Z,0.00
2019-01-13T02:47:46.874Z,0.00
2019-01-13T02:48:46.853Z,0.00
2019-01-13T02:49:46.868Z,0.00
2019-01-13T02:50:46.858Z,0.00
2019-01-13T02:51:46.825Z,0.00
2019-01-13T02:52:46.809Z,0.00
2019-01-13T02:53:46.799Z,0.00
2019-01-13T02:54:46.790Z,0.00
2019-01-13T02:55:46.805Z,0.00
2019-01-13T02:56:46.782Z,0.00
2019-01-13T02:57:46.758Z,0.00
2019-01-13T02:58:46.766Z,0.00
2019-01-13T02:59:46.769Z,0.00
2019-01-13T03:00:46.756Z,0.00
2019-01-13T03:01:46.728Z,0.00
2019-01-13T03:02:46.706Z,0.00
2019-01-13T03:03:46.735Z,0.00
2019-01-13T03:04:46.693Z,0.00
2019-01-13T03:05:46.707Z,0.00
2019-01-13T03:06:46.673Z,0.00
2019-01-13T03:07:46.657Z,0.00
2019-01-13T03:08:46.645Z,0.00
2019-01-13T03:09:46.660Z,0.00
2019-01-13T03:10:46.661Z,0.00
2019-01-13T03:11:46.639Z,0.00
2019-01-13T03:12:46.610Z,0.00
2019-01-13T03:13:46.589Z,0.00
2019-01-13T03:14:46.584Z,0.00
2019-01-13T03:15:46.638Z,0.00
2019-01-13T03:16:46.567Z,0.00
2019-01-13T03:17:46.572Z,0.00
2019-01-13T03:18:46.556Z,0.00
2019-01-13T03:19:46.546Z,0.00
2019-01-13T03:20:46.550Z,0.00
2019-01-13T03:21:46.539Z,0.00
2019-01-13T03:22:46.520Z,0.00
2019-01-13T03:23:46.548Z,0.00
2019-01-13T03:24:46.482Z,0.00
2019-01-13T03:25:46.476Z,0.00
2019-01-13T03:26:46.457Z,0.00
2019-01-13T03:27:46.457Z,0.00
2019-01-13T03:28:46.481Z,0.00
2019-01-13T03:29:46.426Z,0.00
2019-01-13T03:30:46.422Z,0.00
2019-01-13T03:31:46.419Z,0.00
2019-01-13T03:32:46.426Z,0.00
2019-01-13T03:33:46.440Z,0.00
2019-01-13T03:34:46.370Z,0.00
2019-01-13T03:35:46.384Z,0.00
2019-01-13T03:36:46.349Z,0.00
2019-01-13T03:37:46.361Z,0.00
2019-01-13T03:38:46.372Z,0.00
2019-01-13T03:39:46.320Z,0.00
2019-01-13T03:40:46.309Z,0.00
2019-01-13T03:41:46.323Z,0.00
2019-01-13T03:42:46.327Z,0.00
2019-01-13T03:43:46.302Z,0.00
2019-01-13T03:44:46.272Z,0.00
2019-01-13T03:45:46.268Z,0.00
2019-01-13T03:46:46.245Z,0.00
2019-01-13T03:47:46.260Z,0.00
2019-01-13T03:48:46.231Z,0.00
2019-01-13T03:49:46.217Z,0.00
2019-01-13T03:50:46.218Z,0.00
2019-01-13T03:51:46.200Z,0.00
2019-01-13T03:52:52.887Z,0.00
2019-01-13T03:53:47.196Z,0.00
2019-01-13T03:54:46.231Z,0.00
2019-01-13T03:55:46.163Z,0.00
2019-01-13T03:56:46.150Z,0.00
2019-01-13T03:57:46.161Z,0.00
2019-01-13T03:58:46.123Z,0.00
2019-01-13T03:59:46.142Z,0.00
2019-01-13T04:00:46.107Z,0.00
2019-01-13T04:01:46.092Z,0.00
2019-01-13T04:02:46.079Z,0.00
2019-01-13T04:03:46.105Z,0.00
2019-01-13T04:04:46.074Z,0.00
2019-01-13T04:05:46.054Z,0.00
2019-01-13T04:06:46.043Z,0.00
2019-01-13T04:07:46.088Z,0.00
2019-01-13T04:08:46.019Z,0.00
2019-01-13T04:09:46.010Z,0.00
2019-01-13T04:10:45.996Z,0.00
2019-01-13T04:11:45.984Z,0.00
2019-01-13T04:12:46.001Z,0.00
2019-01-13T04:13:45.967Z,0.00
2019-01-13T04:14:45.968Z,0.00
2019-01-13T04:15:45.953Z,0.00
2019-01-13T04:16:45.939Z,0.00
2019-01-13T04:17:45.949Z,0.00
2019-01-13T04:18:45.946Z,0.00
2019-01-13T04:19:45.900Z,0.00
2019-01-13T04:20:45.893Z,0.00
2019-01-13T04:21:45.897Z,0.00
2019-01-13T04:22:45.875Z,0.00
2019-01-13T04:23:45.893Z,0.00
2019-01-13T04:24:45.852Z,0.00
2019-01-13T04:25:45.852Z,0.00
2019-01-13T04:26:45.831Z,0.00
2019-01-13T04:27:45.818Z,0.00
2019-01-13T04:28:45.838Z,0.00
2019-01-13T04:29:45.799Z,0.00
2019-01-13T04:30:45.794Z,0.00
2019-01-13T04:31:45.783Z,0.00
2019-01-13T04:32:45.770Z,0.00
2019-01-13T04:33:45.781Z,0.00
2019-01-13T04:34:45.761Z,0.00
2019-01-13T04:35:45.734Z,0.00
2019-01-13T04:36:45.723Z,0.00
2019-01-13T04:37:45.750Z,0.00
2019-01-13T04:38:45.730Z,0.00
2019-01-13T04:39:45.699Z,0.00
2019-01-13T04:40:45.682Z,0.00
2019-01-13T04:41:45.676Z,0.00
2019-01-13T04:42:45.685Z,0.00
2019-01-13T04:43:45.679Z,0.00
2019-01-13T04:44:45.654Z,0.00
2019-01-13T04:45:45.659Z,0.00
2019-01-13T04:46:45.666Z,0.00
2019-01-13T04:47:45.621Z,0.00
2019-01-13T04:48:45.630Z,0.00
2019-01-13T04:49:45.590Z,0.00
2019-01-13T04:50:45.614Z,0.00
2019-01-13T04:51:45.571Z,0.00
2019-01-13T04:52:45.559Z,0.00
2019-01-13T04:53:45.590Z,0.00
2019-01-13T04:54:45.542Z,0.00
2019-01-13T04:55:45.553Z,0.00
2019-01-13T04:56:45.518Z,0.00
2019-01-13T04:57:45.642Z,0.00
2019-01-13T04:58:45.542Z,0.00
2019-01-13T04:59:45.537Z,0.00
2019-01-13T05:00:45.480Z,0.00
2019-01-13T05:01:45.480Z,0.00
2019-01-13T05:02:45.456Z,0.00
2019-01-13T05:03:45.443Z,0.00
2019-01-13T05:04:45.477Z,0.00
2019-01-13T05:05:45.475Z,0.00
2019-01-13T05:06:45.462Z,0.00
2019-01-13T05:07:45.437Z,0.00
2019-01-13T05:08:45.407Z,0.00
2019-01-13T05:09:45.399Z,0.00
2019-01-13T05:10:45.411Z,0.00
2019-01-13T05:11:45.383Z,0.00
2019-01-13T05:12:45.415Z,0.00
2019-01-13T05:13:45.418Z,0.00
2019-01-13T05:14:45.334Z,0.00
2019-01-13T05:15:45.373Z,0.00
2019-01-13T05:16:45.321Z,0.00
2019-01-13T05:17:45.322Z,0.00
2019-01-13T05:18:45.289Z,0.00
2019-01-13T05:19:45.317Z,0.00
2019-01-13T05:20:45.291Z,0.00
2019-01-13T05:21:45.277Z,0.00
2019-01-13T05:22:45.246Z,0.00
2019-01-13T05:23:45.241Z,0.00
2019-01-13T05:24:45.248Z,0.00
2019-01-13T05:25:45.221Z,0.00
2019-01-13T05:26:45.201Z,0.00
2019-01-13T05:27:45.219Z,0.00
2019-01-13T05:28:45.183Z,0.00
2019-01-13T05:29:45.190Z,0.00
2019-01-13T05:30:45.158Z,0.00
2019-01-13T05:31:45.154Z,0.00
2019-01-13T05:32:45.144Z,0.00
2019-01-13T05:33:45.127Z,0.00
2019-01-13T05:34:45.144Z,0.00
2019-01-13T05:35:45.115Z,0.00
2019-01-13T05:36:45.104Z,0.00
2019-01-13T05:37:45.089Z,0.00
2019-01-13T05:38:45.073Z,0.00
2019-01-13T05:39:45.082Z,0.00
2019-01-13T05:40:45.055Z,0.00
2019-01-13T05:41:45.045Z,0.00
2019-01-13T05:42:45.056Z,0.00
2019-01-13T05:43:45.038Z,0.00
2019-01-13T05:44:45.044Z,0.00
2019-01-13T05:45:45.028Z,0.00
2019-01-13T05:46:44.993Z,0.00
2019-01-13T05:47:44.982Z,0.00
2019-01-13T05:48:44.969Z,0.00
2019-01-13T05:49:44.968Z,0.00
2019-01-13T05:50:45.003Z,0.00
2019-01-13T05:51:44.939Z,0.00
2019-01-13T05:52:44.931Z,0.00
2019-01-13T05:53:44.930Z,0.00
2019-01-13T05:54:44.917Z,0.00
2019-01-13T05:55:44.923Z,0.00
2019-01-13T05:56:44.890Z,0.00
2019-01-13T05:57:44.878Z,0.00
2019-01-13T05:58:44.868Z,0.00
2019-01-13T05:59:44.864Z,0.00
2019-01-13T06:00:44.898Z,0.00
2019-01-13T06:01:49.100Z,0.00
2019-01-13T06:02:44.825Z,0.00
2019-01-13T06:03:44.817Z,0.00
2019-01-13T06:04:44.808Z,0.00
2019-01-13T06:05:44.820Z,0.00
2019-01-13T06:06:44.808Z,0.00
2019-01-13T06:07:44.775Z,0.00
2019-01-13T06:08:44.764Z,0.00
2019-01-13T06:09:44.760Z,0.00
2019-01-13T06:10:44.744Z,0.00
2019-01-13T06:11:44.763Z,0.00
2019-01-13T06:12:44.729Z,0.00
2019-01-13T06:13:44.710Z,0.00
2019-01-13T06:14:44.700Z,0.00
2019-01-13T06:15:45.801Z,0.00
2019-01-13T06:16:44.715Z,0.00
2019-01-13T06:17:44.669Z,0.00
2019-01-13T06:18:44.672Z,0.00
2019-01-13T06:19:44.654Z,0.00
2019-01-13T06:20:44.666Z,0.00
2019-01-13T06:21:44.629Z,0.00
2019-01-13T06:22:44.616Z,0.00
2019-01-13T06:23:44.611Z,0.00
2019-01-13T06:24:44.594Z,0.00
2019-01-13T06:25:44.614Z,0.00
2019-01-13T06:26:44.585Z,0.00
2019-01-13T06:27:44.566Z,0.00
2019-01-13T06:28:44.579Z,0.00
2019-01-13T06:29:44.544Z,0.00
2019-01-13T06:30:44.559Z,0.00
2019-01-13T06:31:44.522Z,0.00
2019-01-13T06:32:44.513Z,0.00
2019-01-13T06:33:44.537Z,0.00
2019-01-13T06:34:44.501Z,0.00
2019-01-13T06:35:44.485Z,0.00
2019-01-13T06:36:44.469Z,0.00
2019-01-13T06:37:44.461Z,0.00
2019-01-13T06:38:44.487Z,0.00
2019-01-13T06:39:44.438Z,0.00
2019-01-13T06:40:44.429Z,0.00
2019-01-13T06:41:44.430Z,0.00
2019-01-13T06:42:44.415Z,0.00
2019-01-13T06:43:44.465Z,0.00
2019-01-13T06:44:44.428Z,0.00
2019-01-13T06:45:44.403Z,0.00
2019-01-13T06:46:44.378Z,0.00
2019-01-13T06:47:44.358Z,0.00
2019-01-13T06:48:44.372Z,0.00
2019-01-13T06:49:44.341Z,0.00
2019-01-13T06:50:44.368Z,0.00
2019-01-13T06:51:44.381Z,0.00
2019-01-13T06:52:44.343Z,0.00
2019-01-13T06:53:44.298Z,0.00
2019-01-13T06:54:44.307Z,0.00
2019-01-13T06:55:44.277Z,0.00
2019-01-13T06:56:44.307Z,0.00
2019-01-13T06:57:44.252Z,0.00
2019-01-13T06:58:44.243Z,0.00
2019-01-13T06:59:44.234Z,0.00
2019-01-13T07:00:44.247Z,0.00
2019-01-13T07:01:44.244Z,0.00
2019-01-13T07:02:44.259Z,0.00
2019-01-13T07:03:44.216Z,0.00
2019-01-13T07:04:44.197Z,0.00
2019-01-13T07:05:44.181Z,0.00
2019-01-13T07:06:44.207Z,0.00
2019-01-13T07:07:44.181Z,0.00
2019-01-13T07:08:44.145Z,0.00
2019-01-13T07:09:44.149Z,0.00
2019-01-13T07:10:44.149Z,0.00
2019-01-13T07:11:44.152Z,0.00
2019-01-13T07:12:44.111Z,0.00
2019-01-13T07:13:44.090Z,0.00
2019-01-13T07:14:44.089Z,0.00
2019-01-13T07:15:44.095Z,0.00
2019-01-13T07:16:44.144Z,0.00
2019-01-13T07:17:44.054Z,0.00
2019-01-13T07:18:44.039Z,0.00
2019-01-13T07:19:44.022Z,0.00
2019-01-13T07:20:44.032Z,0.00
2019-01-13T07:21:44.042Z,0.00
2019-01-13T07:22:44.012Z,0.00
2019-01-13T07:23:44.010Z,0.00
2019-01-13T07:24:43.974Z,0.00
2019-01-13T07:25:43.969Z,0.00
2019-01-13T07:26:43.991Z,0.00
2019-01-13T07:27:43.962Z,0.00
2019-01-13T07:28:43.946Z,0.00
2019-01-13T07:29:43.953Z,0.00
2019-01-13T07:30:43.918Z,0.00
2019-01-13T07:31:43.910Z,0.00
2019-01-13T07:32:43.913Z,0.00
2019-01-13T07:33:43.881Z,0.00
2019-01-13T07:34:43.910Z,0.00
2019-01-13T07:35:43.868Z,0.00
2019-01-13T07:36:43.854Z,0.00
2019-01-13T07:37:43.840Z,0.00
2019-01-13T07:38:43.837Z,0.00
2019-01-13T07:39:43.844Z,0.00
2019-01-13T07:40:43.814Z,0.00
2019-01-13T07:41:43.836Z,0.00
2019-01-13T07:42:43.786Z,0.00
2019-01-13T07:43:43.832Z,5.62
2019-01-13T07:44:43.769Z,0.00
2019-01-13T07:45:43.816Z,5.62
2019-01-13T07:46:43.749Z,5.62
2019-01-13T07:47:43.745Z,5.62
2019-01-13T07:48:43.729Z,5.62
2019-01-13T07:49:43.728Z,5.62
2019-01-13T07:50:43.749Z,5.62
2019-01-13T07:51:43.725Z,5.62
2019-01-13T07:52:43.684Z,5.62
2019-01-13T07:53:43.702Z,5.62
2019-01-13T07:54:43.673Z,5.62
2019-01-13T07:55:43.685Z,5.62
2019-01-13T07:56:43.638Z,0.00
2019-01-13T07:57:43.632Z,0.00
2019-01-13T07:58:43.629Z,0.00
2019-01-13T07:59:43.610Z,0.00
2019-01-13T08:00:43.632Z,5.62
2019-01-13T08:01:43.603Z,5.62
2019-01-13T08:02:43.619Z,5.62
2019-01-13T08:03:43.615Z,0.00
2019-01-13T08:04:43.556Z,5.62
2019-01-13T08:05:43.541Z,5.62
2019-01-13T08:06:43.568Z,5.62
2019-01-13T08:07:43.565Z,5.62
2019-01-13T08:08:43.566Z,5.62
2019-01-13T08:09:43.520Z,5.62
2019-01-13T08:10:43.532Z,5.62
2019-01-13T08:11:43.492Z,5.62
2019-01-13T08:12:43.490Z,5.62
2019-01-13T08:13:43.497Z,5.62
2019-01-13T08:14:43.475Z,5.62
2019-01-13T08:15:43.455Z,5.62
2019-01-13T08:16:43.435Z,11.25
2019-01-13T08:17:43.418Z,11.25
2019-01-13T08:18:43.437Z,11.25
2019-01-13T08:19:43.435Z,11.25
2019-01-13T08:20:43.386Z,11.25
2019-01-13T08:21:43.393Z,11.25
2019-01-13T08:22:43.370Z,11.25
2019-01-13T08:23:43.387Z,11.25
2019-01-13T08:24:43.369Z,11.25
2019-01-13T08:25:43.357Z,11.25
2019-01-13T08:26:43.357Z,11.25
2019-01-13T08:27:43.312Z,11.25
2019-01-13T08:28:43.337Z,11.25
2019-01-13T08:29:43.295Z,11.25
2019-01-13T08:30:43.291Z,16.88
2019-01-13T08:31:43.282Z,16.88
2019-01-13T08:32:43.272Z,16.88
2019-01-13T08:33:43.261Z,22.50
2019-01-13T08:34:43.231Z,16.88
2019-01-13T08:35:43.263Z,28.12
2019-01-13T08:36:43.223Z,22.50
2019-01-13T08:37:43.264Z,28.12
2019-01-13T08:38:43.243Z,22.50
2019-01-13T08:39:43.194Z,28.12
2019-01-13T08:40:43.196Z,28.12
2019-01-13T08:41:43.174Z,28.12
2019-01-13T08:42:43.163Z,28.12
2019-01-13T08:43:43.173Z,33.75
2019-01-13T08:44:43.124Z,22.50
2019-01-13T08:45:50.054Z,28.12
2019-01-13T08:46:44.114Z,28.12
2019-01-13T08:47:43.134Z,22.50
2019-01-13T08:48:43.074Z,28.12
2019-01-13T08:49:43.069Z,33.75
2019-01-13T08:50:43.060Z,28.12
2019-01-13T08:51:43.058Z,33.75
2019-01-13T08:52:43.079Z,45.00
2019-01-13T08:53:43.023Z,33.75
2019-01-13T08:54:43.034Z,28.12
2019-01-13T08:55:43.017Z,28.12
2019-01-13T08:56:43.005Z,33.75
2019-01-13T08:57:43.031Z,28.12
2019-01-13T08:58:42.979Z,28.12
2019-01-13T08:59:42.965Z,28.12
2019-01-13T09:00:42.967Z,39.38
2019-01-13T09:01:42.961Z,33.75
2019-01-13T09:02:43.002Z,28.12
2019-01-13T09:03:42.910Z,39.38
2019-01-13T09:04:42.938Z,39.38
2019-01-13T09:05:42.887Z,33.75
2019-01-13T09:06:42.871Z,28.12
2019-01-13T09:07:42.894Z,39.38
2019-01-13T09:08:42.851Z,39.38
2019-01-13T09:09:42.856Z,33.75
2019-01-13T09:10:42.840Z,39.38
2019-01-13T09:11:42.857Z,28.12
2019-01-13T09:12:42.835Z,28.12
2019-01-13T09:13:42.802Z,33.75
2019-01-13T09:14:42.780Z,33.75
2019-01-13T09:15:42.783Z,33.75
2019-01-13T09:16:42.818Z,33.75
2019-01-13T09:17:42.761Z,33.75
2019-01-13T09:18:42.767Z,33.75
2019-01-13T09:19:42.723Z,33.75
2019-01-13T09:20:42.722Z,45.00
2019-01-13T09:21:42.739Z,45.00
2019-01-13T09:22:42.692Z,45.00
2019-01-13T09:23:42.705Z,50.62
2019-01-13T09:24:42.678Z,50.62
2019-01-13T09:25:42.661Z,50.62
2019-01-13T09:26:42.679Z,67.50
2019-01-13T09:27:42.646Z,56.25
2019-01-13T09:28:42.645Z,56.25
2019-01-13T09:29:42.647Z,56.25
2019-01-13T09:30:42.645Z,50.62
2019-01-13T09:31:42.587Z,50.62
2019-01-13T09:32:42.579Z,50.62
2019-01-13T09:33:42.571Z,61.88
2019-01-13T09:34:42.552Z,50.62
2019-01-13T09:35:42.577Z,56.25
2019-01-13T09:36:42.527Z,61.88
2019-01-13T09:37:42.521Z,56.25
2019-01-13T09:38:42.517Z,50.62
2019-01-13T09:39:42.509Z,90.00
2019-01-13T09:40:42.513Z,56.25
2019-01-13T09:41:42.490Z,50.62
2019-01-13T09:42:42.472Z,56.25
2019-01-13T09:43:42.448Z,56.25
2019-01-13T09:44:42.476Z,56.25
2019-01-13T09:45:42.463Z,50.62
2019-01-13T09:46:42.432Z,56.25
2019-01-13T09:47:42.403Z,50.62
2019-01-13T09:48:42.397Z,50.62
2019-01-13T09:49:42.412Z,50.62
2019-01-13T09:50:42.450Z,50.62
2019-01-13T09:51:42.375Z,61.88
2019-01-13T09:52:42.354Z,61.88
2019-01-13T09:53:42.341Z,50.62
2019-01-13T09:54:42.362Z,45.00
2019-01-13T09:55:42.338Z,50.62
2019-01-13T09:56:42.311Z,45.00
2019-01-13T09:57:42.323Z,39.38
2019-01-13T09:58:42.288Z,39.38
2019-01-13T09:59:42.332Z,39.38
2019-01-13T10:00:42.254Z,50.62
2019-01-13T10:01:42.272Z,50.62
2019-01-13T10:02:46.665Z,45.00
2019-01-13T10:03:42.228Z,56.25
2019-01-13T10:04:42.233Z,56.25
2019-01-13T10:05:42.199Z,50.62
2019-01-13T10:06:42.191Z,67.50
2019-01-13T10:07:42.229Z,61.88
2019-01-13T10:08:42.199Z,56.25
2019-01-13T10:09:42.169Z,61.88
2019-01-13T10:10:43.833Z,67.50
2019-01-13T10:11:42.130Z,56.25
2019-01-13T10:12:42.120Z,56.25
2019-01-13T10:13:42.165Z,56.25
2019-01-13T10:14:42.145Z,73.12
2019-01-13T10:15:42.099Z,56.25
2019-01-13T10:16:42.111Z,56.25
2019-01-13T10:17:42.064Z,73.12
2019-01-13T10:18:42.055Z,61.88
2019-01-13T10:19:42.039Z,56.25
2019-01-13T10:20:42.034Z,73.12
2019-01-13T10:21:42.052Z,73.12
2019-01-13T10:22:42.080Z,78.75
2019-01-13T10:23:42.035Z,67.50
2019-01-13T10:24:41.989Z,56.25
2019-01-13T10:25:42.022Z,50.62
2019-01-13T10:26:41.961Z,50.62
2019-01-13T10:27:41.969Z,67.50
2019-01-13T10:28:41.975Z,78.75
2019-01-13T10:29:41.969Z,78.75
2019-01-13T10:30:41.944Z,90.00
2019-01-13T10:31:41.914Z,73.12
2019-01-13T10:32:41.909Z,73.12
2019-01-13T10:33:42.015Z,50.62
2019-01-13T10:34:41.910Z,39.38
2019-01-13T10:35:41.857Z,45.00
2019-01-13T10:36:41.845Z,39.38
2019-01-13T10:37:41.913Z,45.00
2019-01-13T10:38:41.861Z,67.50
2019-01-13T10:39:41.858Z,61.88
2019-01-13T10:40:41.802Z,50.62
2019-01-13T10:41:41.853Z,67.50
2019-01-13T10:42:41.778Z,67.50
2019-01-13T10:43:41.788Z,67.50
2019-01-13T10:44:41.758Z,56.25
2019-01-13T10:45:41.793Z,50.62
2019-01-13T10:46:41.767Z,61.88
2019-01-13T10:47:41.724Z,56.25
2019-01-13T10:48:41.711Z,50.62
2019-01-13T10:49:41.697Z,50.62
2019-01-13T10:50:41.724Z,61.88
2019-01-13T10:51:41.689Z,61.88
2019-01-13T10:52:41.666Z,61.88
2019-01-13T10:53:41.674Z,61.88
2019-01-13T10:54:41.676Z,78.75
2019-01-13T10:55:41.647Z,56.25
2019-01-13T10:56:41.633Z,50.62
2019-01-13T10:57:41.622Z,61.88
2019-01-13T10:58:41.625Z,61.88
2019-01-13T10:59:41.611Z,73.12
2019-01-13T11:00:41.574Z,67.50
2019-01-13T11:01:41.580Z,67.50
2019-01-13T11:02:41.606Z,61.88
2019-01-13T11:03:41.556Z,84.38
2019-01-13T11:04:41.537Z,67.50
2019-01-13T11:05:41.512Z,56.25
2019-01-13T11:06:41.553Z,61.88
2019-01-13T11:07:41.490Z,61.88
2019-01-13T11:08:41.489Z,84.38
2019-01-13T11:09:41.470Z,67.50
2019-01-13T11:10:41.476Z,78.75
2019-01-13T11:11:41.471Z,67.50
2019-01-13T11:12:41.438Z,61.88
2019-01-13T11:13:41.455Z,67.50
2019-01-13T11:14:41.420Z,78.75
2019-01-13T11:15:41.418Z,67.50
2019-01-13T11:16:41.397Z,73.12
2019-01-13T11:17:41.378Z,84.38
2019-01-13T11:18:41.410Z,73.12
2019-01-13T11:19:41.361Z,56.25
2019-01-13T11:20:41.356Z,45.00
2019-01-13T11:21:41.354Z,56.25
2019-01-13T11:22:41.341Z,67.50
2019-01-13T11:23:41.364Z,73.12
2019-01-13T11:24:41.299Z,90.00
2019-01-13T11:25:41.301Z,78.75
2019-01-13T11:26:41.285Z,84.38
2019-01-13T11:27:41.276Z,78.75
2019-01-13T11:28:41.280Z,73.12
2019-01-13T11:29:41.240Z,78.75
2019-01-13T11:30:41.256Z,61.88
2019-01-13T11:31:41.298Z,56.25
2019-01-13T11:32:41.205Z,61.88
2019-01-13T11:33:41.197Z,78.75
2019-01-13T11:34:41.190Z,73.12
2019-01-13T11:35:41.197Z,84.38
2019-01-13T11:36:41.164Z,101.25
2019-01-13T11:37:41.165Z,112.50
2019-01-13T11:38:41.184Z,106.88
2019-01-13T11:39:41.187Z,135.00
2019-01-13T11:40:41.134Z,101.25
2019-01-13T11:41:41.111Z,101.25
2019-01-13T11:42:41.115Z,84.38
2019-01-13T11:43:41.122Z,101.25
2019-01-13T11:44:41.086Z,101.25
2019-01-13T11:45:41.061Z,118.12
2019-01-13T11:46:41.090Z,112.50
2019-01-13T11:47:41.039Z,118.12
2019-01-13T11:48:41.105Z,123.75
2019-01-13T11:49:41.016Z,73.12
2019-01-13T11:50:41.000Z,73.12
2019-01-13T11:51:40.992Z,90.00
2019-01-13T11:52:40.986Z,106.88
2019-01-13T11:53:41.003Z,84.38
2019-01-13T11:54:40.979Z,90.00
2019-01-13T11:55:40.960Z,95.62
2019-01-13T11:56:40.933Z,78.75
2019-01-13T11:57:40.922Z,78.75
2019-01-13T11:58:40.951Z,95.62
2019-01-13T11:59:40.937Z,84.38
2019-01-13T12:00:40.929Z,73.12
2019-01-13T12:01:40.886Z,61.88
2019-01-13T12:02:40.909Z,90.00
2019-01-13T12:03:40.854Z,61.88
2019-01-13T12:04:40.855Z,61.88
2019-01-13T12:05:40.842Z,67.50
2019-01-13T12:06:40.831Z,78.75
2019-01-13T12:07:40.852Z,73.12
2019-01-13T12:08:40.801Z,73.12
2019-01-13T12:09:40.795Z,56.25
2019-01-13T12:10:40.802Z,50.62
2019-01-13T12:11:40.797Z,28.12
2019-01-13T12:12:40.785Z,28.12
2019-01-13T12:13:40.741Z,33.75
2019-01-13T12:14:40.770Z,33.75
2019-01-13T12:15:40.720Z,39.38
2019-01-13T12:16:40.711Z,56.25
2019-01-13T12:17:40.709Z,50.62
2019-01-13T12:18:40.879Z,45.00
2019-01-13T12:19:40.717Z,45.00
2019-01-13T12:20:40.687Z,39.38
2019-01-13T12:21:40.658Z,39.38
2019-01-13T12:22:40.671Z,45.00
2019-01-13T12:23:40.639Z,50.62
2019-01-13T12:24:40.638Z,84.38
2019-01-13T12:25:42.265Z,45.00
2019-01-13T12:26:40.592Z,101.25
2019-01-13T12:27:40.617Z,84.38
2019-01-13T12:28:40.596Z,61.88
2019-01-13T12:29:40.593Z,50.62
2019-01-13T12:30:40.544Z,50.62
2019-01-13T12:31:40.537Z,61.88
2019-01-13T12:32:40.547Z,56.25
2019-01-13T12:33:40.570Z,101.25
2019-01-13T12:34:40.566Z,67.50
2019-01-13T12:35:40.486Z,67.50
2019-01-13T12:36:41.431Z,95.62
2019-01-13T12:37:40.493Z,101.25
2019-01-13T12:38:40.462Z,78.75
2019-01-13T12:39:40.476Z,73.12
2019-01-13T12:40:40.448Z,90.00
2019-01-13T12:41:40.416Z,84.38
2019-01-13T12:42:40.424Z,67.50
2019-01-13T12:43:40.475Z,78.75
2019-01-13T12:44:40.412Z,78.75
2019-01-13T12:45:40.379Z,73.12
2019-01-13T12:46:40.369Z,78.75
2019-01-13T12:47:40.934Z,90.00
2019-01-13T12:48:40.386Z,101.25
2019-01-13T12:49:40.334Z,112.50
2019-01-13T12:50:40.341Z,95.62
2019-01-13T12:51:40.337Z,106.88
2019-01-13T12:52:40.309Z,84.38
2019-01-13T12:53:40.292Z,95.62
2019-01-13T12:54:40.300Z,95.62
2019-01-13T12:55:40.255Z,90.00
2019-01-13T12:56:40.257Z,90.00
2019-01-13T12:57:40.256Z,95.62
2019-01-13T12:58:40.269Z,90.00
2019-01-13T12:59:40.233Z,101.25
2019-01-13T13:00:40.247Z,78.75
2019-01-13T13:01:40.185Z,90.00
2019-01-13T13:02:40.182Z,73.12
2019-01-13T13:03:40.180Z,95.62
2019-01-13T13:04:40.167Z,84.38
2019-01-13T13:05:40.141Z,84.38
2019-01-13T13:06:40.159Z,67.50
2019-01-13T13:07:40.117Z,90.00
2019-01-13T13:08:40.136Z,101.25